Time;durP1;ratioP1;P1;durP2;ratioP2;P2;SDS_P1;SDS_P2;PMS_P1;PMS_P2;Temp;Humidity;BMP_temperature;BMP_pressure;BME280_temperature;BME280_humidity;BME280_pressure;Samples;Min_cycle;Max_cycle;Signal;HPM_P1;HPM_P2
2024/04/06 00:00:52;;;;;;;5.05;1.50;;;;;;;14.84;100.00;101115.22;5110923;28;20002;-39
2024/04/06 00:03:17;;;;;;;;;;;;;;;14.91;100.00;101118.56;5110126;28;20024;-40
2024/04/06 00:05:43;;;;;;;3.67;1.03;;;;;;;14.81;100.00;101116.53;5101895;28;19946;-40
2024/04/06 00:08:08;;;;;;;;;;;;;;;14.85;100.00;101114.97;5097272;28;20031;-40
2024/04/06 00:10:33;;;;;;;3.13;1.00;;;;;;;14.75;100.00;101123.00;5096441;28;19916;-40
2024/04/06 00:12:58;;;;;;;2.55;1.10;;;;;;;14.71;100.00;101129.19;5096511;28;20262;-40
2024/04/06 00:15:24;;;;;;;;;;;;;;;14.77;100.00;101133.63;5096741;28;20028;-40
2024/04/06 00:17:49;;;;;;;1.40;0.83;;;;;;;14.64;100.00;101135.66;5096172;28;19908;-40
2024/04/06 00:20:14;;;;;;;2.87;1.17;;;;;;;14.65;100.00;101131.84;5095870;28;20270;-40
2024/04/06 00:22:40;;;;;;;4.55;1.00;;;;;;;14.61;100.00;101127.16;5096035;28;20270;-41
2024/04/06 00:25:05;;;;;;;1.73;0.80;;;;;;;14.45;100.00;101107.03;5096026;28;20057;-41
2024/04/06 00:27:32;;;;;;;2.45;0.95;;;;;;;14.46;100.00;101114.13;5096021;28;20266;-40
2024/04/06 00:29:58;;;;;;;3.50;1.27;;;;;;;14.42;100.00;101124.69;5096181;28;20460;-40
2024/04/06 00:32:23;;;;;;;2.63;1.00;;;;;;;14.40;100.00;101117.84;5096194;28;20031;-40
2024/04/06 00:34:49;;;;;;;;;;;;;;;14.55;100.00;101136.34;5096292;28;20107;-40
2024/04/06 00:37:14;;;;;;;2.07;1.00;;;;;;;14.47;100.00;101131.28;5095479;28;20287;-40
2024/04/06 00:39:39;;;;;;;3.38;1.10;;;;;;;14.42;100.00;101129.31;5096290;28;20266;-40
2024/04/06 00:42:04;;;;;;;;;;;;;;;14.45;100.00;101134.25;5096157;28;20051;-40
2024/04/06 00:44:30;;;;;;;2.03;0.90;;;;;;;14.30;100.00;101128.56;5096024;28;20039;-40
2024/04/06 00:47:00;;;;;;;4.18;1.10;;;;;;;14.32;100.00;101129.16;5095626;28;20266;-40
2024/04/06 00:49:25;;;;;;;2.28;1.00;;;;;;;14.20;100.00;101133.84;5096111;28;20030;-40
2024/04/06 00:51:51;;;;;;;;;;;;;;;14.37;100.00;101142.84;5095616;28;20115;-40
2024/04/06 00:54:17;;;;;;;1.57;0.90;;;;;;;14.20;100.00;101131.13;5095683;28;19916;-40
2024/04/06 00:56:42;;;;;;;1.67;1.00;;;;;;;14.15;100.00;101135.44;5095378;28;20274;-40
2024/04/06 00:59:08;;;;;;;2.08;1.08;;;;;;;14.23;100.00;101136.06;5095697;28;20380;-40
2024/04/06 01:01:33;;;;;;;3.13;1.25;;;;;;;14.20;100.00;101142.00;5095628;28;20444;-40
2024/04/06 01:03:59;;;;;;;;;;;;;;;14.28;100.00;101128.00;5095514;28;20384;-40
2024/04/06 01:06:25;;;;;;;1.23;0.73;;;;;;;14.15;100.00;101137.31;5095003;28;19915;-40
2024/04/06 01:08:50;;;;;;;2.97;1.25;;;;;;;14.07;100.00;101122.25;5095707;28;20254;-40
2024/04/06 01:11:15;;;;;;;2.17;1.20;;;;;;;14.11;100.00;101131.56;5095152;28;20115;-39
2024/04/06 01:13:41;;;;;;;;;;;;;;;14.22;100.00;101129.00;5095473;28;20114;-40
2024/04/06 01:16:06;;;;;;;2.22;1.10;;;;;;;14.08;100.00;101129.31;5094528;28;20393;-40
2024/04/06 01:18:31;;;;;;;;;;;;;;;14.20;100.00;101137.41;5095213;28;20048;-40
2024/04/06 01:20:57;;;;;;;1.30;0.90;;;;;;;14.07;100.00;101135.84;5095014;28;20371;-40
2024/04/06 01:23:23;;;;;;;2.35;1.10;;;;;;;14.02;100.00;101134.94;5094605;28;20691;-40
2024/04/06 01:25:48;;;;;;;3.03;1.20;;;;;;;13.93;100.00;101126.34;5094829;28;20032;-40
2024/04/06 01:28:14;;;;;;;;;;;;;;;14.05;100.00;101123.53;5095770;28;20360;-40
2024/04/06 01:30:39;;;;;;;1.73;1.07;;;;;;;13.93;100.00;101122.81;5095028;28;19912;-40
2024/04/06 01:33:04;;;;;;;;;;;;;;;14.00;100.00;101121.56;5094839;28;20391;-40
2024/04/06 01:35:30;;;;;;;2.17;1.00;;;;;;;13.82;100.00;101125.38;5094992;28;20352;-40
2024/04/06 01:37:55;;;;;;;1.80;1.30;;;;;;;13.84;100.00;101122.38;5094704;28;20622;-40
2024/04/06 01:40:20;;;;;;;2.72;1.30;;;;;;;13.83;100.00;101127.00;5095266;28;20032;-40
2024/04/06 01:42:46;;;;;;;3.95;1.65;;;;;;;13.79;100.00;101125.03;5094617;28;20024;-40
2024/04/06 01:45:11;;;;;;;1.50;1.05;;;;;;;13.71;100.00;101114.53;5094739;28;20032;-40
2024/04/06 01:47:36;;;;;;;;;;;;;;;13.87;100.00;101130.88;5094877;28;20020;-40
2024/04/06 01:50:08;;;;;;;3.22;1.48;;;;;;;13.72;100.00;101129.81;5095162;28;20001;-41
2024/04/06 01:52:33;;;;;;;2.20;1.23;;;;;;;13.71;100.00;101128.94;5094312;28;20020;-39
2024/04/06 01:54:59;;;;;;;;;;;;;;;13.81;100.00;101126.44;5095047;28;20120;-39
2024/04/06 01:57:24;;;;;;;2.72;1.50;;;;;;;13.68;100.00;101117.78;5093913;28;19919;-40
2024/04/06 01:59:50;;;;;;;2.80;1.70;;;;;;;13.61;100.00;101109.75;5094052;28;20108;-39
2024/04/06 02:02:15;;;;;;;;;;;;;;;13.69;100.00;101111.25;5094344;28;20076;-39
2024/04/06 02:04:40;;;;;;;3.37;1.50;;;;;;;13.58;100.00;101113.78;5094488;28;19916;-40
2024/04/06 02:07:06;;;;;;;;;;;;;;;13.65;100.00;101114.44;5095279;28;20073;-39
2024/04/06 02:09:32;;;;;;;3.45;1.55;;;;;;;13.51;100.00;101096.81;5094332;28;19919;-39
2024/04/06 02:11:57;;;;;;;2.55;1.40;;;;;;;13.56;100.00;101106.94;5094025;28;20504;-39
2024/04/06 02:14:22;;;;;;;;;;;;;;;13.65;100.00;101111.72;5094624;28;20036;-40
2024/04/06 02:16:48;;;;;;;4.10;1.60;;;;;;;13.56;100.00;101096.91;5093980;28;19912;-40
2024/04/06 02:19:13;;;;;;;3.22;1.55;;;;;;;13.54;100.00;101096.34;5093617;28;20258;-40
2024/04/06 02:21:39;;;;;;;2.97;1.50;;;;;;;13.56;100.00;101104.22;5094404;28;20046;-40
2024/04/06 02:24:05;;;;;;;3.70;1.58;;;;;;;13.55;100.00;101108.84;5093724;28;20040;-40
2024/04/06 02:26:31;;;;;;;2.53;1.40;;;;;;;13.55;100.00;101111.56;5093811;28;20074;-40
2024/04/06 02:28:56;;;;;;;2.42;1.52;;;;;;;13.52;100.00;101105.81;5093536;28;20032;-40
2024/04/06 02:31:22;;;;;;;;;;;;;;;13.65;100.00;101114.44;5093891;28;20107;-40
2024/04/06 02:33:48;;;;;;;3.05;1.73;;;;;;;13.58;100.00;101108.38;5093889;28;19935;-40
2024/04/06 02:36:13;;;;;;;;;;;;;;;13.67;100.00;101106.06;5094399;28;20024;-40
2024/04/06 02:38:39;;;;;;;3.70;1.60;;;;;;;13.58;100.00;101113.78;5093616;28;19943;-40
2024/04/06 02:41:04;;;;;;;;;;;;;;;13.65;100.00;101119.88;5093746;28;20031;-40
2024/04/06 02:43:29;;;;;;;4.40;1.80;;;;;;;13.54;100.00;101119.97;5093369;28;19915;-40
2024/04/06 02:45:55;;;;;;;4.63;1.70;;;;;;;13.54;100.00;101103.66;5093240;28;20295;-40
2024/04/06 02:48:20;;;;;;;;;;;;;;;13.62;100.00;101095.13;5094329;28;20069;-40
2024/04/06 02:50:45;;;;;;;2.63;1.40;;;;;;;13.53;100.00;101088.44;5093543;28;19912;-40
2024/04/06 02:53:11;;;;;;;2.87;1.50;;;;;;;13.49;100.00;101087.28;5093305;28;20436;-40
2024/04/06 02:55:37;;;;;;;2.55;2.00;;;;;;;13.43;100.00;101091.78;5093489;28;20250;-39
2024/04/06 02:58:02;;;;;;;;;;;;;;;13.55;100.00;101094.44;5093582;28;20039;-40
2024/04/06 03:00:27;;;;;;;2.72;1.83;;;;;;;13.37;100.00;101090.03;5094176;28;19915;-40
2024/04/06 03:02:53;;;;;;;;;;;;;;;13.47;100.00;101092.09;5093798;28;20020;-40
2024/04/06 03:05:18;;;;;;;2.83;1.48;;;;;;;13.32;100.00;101088.06;5093618;28;19933;-40
2024/04/06 03:07:44;;;;;;;4.03;1.70;;;;;;;13.24;100.00;101095.78;5093652;28;20050;-40
2024/04/06 03:10:10;;;;;;;3.25;1.55;;;;;;;13.24;100.00;101091.16;5093582;28;20388;-40
2024/04/06 03:12:36;;;;;;;3.75;1.55;;;;;;;13.17;100.00;101089.63;5093581;28;20039;-40
2024/04/06 03:15:01;;;;;;;4.78;1.70;;;;;;;13.13;100.00;101081.16;5093732;28;20035;-40
2024/04/06 03:17:26;;;;;;;;;;;;;;;13.22;100.00;101071.56;5093740;28;20094;-40
2024/04/06 03:19:52;;;;;;;3.47;1.80;;;;;;;13.07;100.00;101069.34;5093556;28;20287;-40
2024/04/06 03:22:17;;;;;;;2.60;1.43;;;;;;;13.02;100.00;101065.72;5093208;28;20626;-40
2024/04/06 03:24:42;;;;;;;;;;;;;;;13.11;100.00;101043.34;5094174;28;20460;-39
2024/04/06 03:27:07;;;;;;;2.57;1.57;;;;;;;12.95;100.00;101043.31;5093172;28;20031;-39
2024/04/06 03:29:33;;;;;;;3.40;1.50;;;;;;;12.91;100.00;101040.25;5094038;28;20300;-39
2024/04/06 03:31:58;;;;;;;2.93;1.50;;;;;;;12.85;100.00;101038.53;5092925;28;20284;-39
2024/04/06 03:34:24;;;;;;;2.90;1.60;;;;;;;12.82;100.00;101050.66;5093349;28;20365;-40
2024/04/06 03:36:49;;;;;;;;;;;;;;;12.94;100.00;101058.78;5093216;28;20103;-39
2024/04/06 03:39:14;;;;;;;2.53;1.40;;;;;;;12.83;100.00;101054.19;5093354;28;19916;-39
2024/04/06 03:41:40;;;;;;;4.60;1.73;;;;;;;12.87;100.00;101060.81;5096354;28;20301;-40
2024/04/06 03:44:05;;;;;;;;;;;;;;;12.92;100.00;101069.03;5097646;28;20043;-40
2024/04/06 03:46:30;;;;;;;3.33;1.40;;;;;;;12.83;100.00;101078.63;5096794;28;19957;-40
2024/04/06 03:48:56;;;;;;;4.33;1.30;;;;;;;12.81;100.00;101076.16;5097594;28;20345;-40
2024/04/06 03:51:22;;;;;;;3.30;1.58;;;;;;;12.77;100.00;101072.28;5096711;28;20305;-40
2024/04/06 03:53:47;;;;;;;3.08;1.73;;;;;;;12.76;100.00;101069.81;5096566;28;20078;-40
2024/04/06 03:56:12;;;;;;;;;;;;;;;12.85;100.00;101069.19;5097276;28;20020;-40
2024/04/06 03:58:38;;;;;;;4.07;1.80;;;;;;;12.75;100.00;101057.31;5096372;28;20002;-40
2024/04/06 04:01:04;;;;;;;4.60;1.75;;;;;;;12.69;100.00;101059.09;5096539;28;20713;-40
2024/04/06 04:03:29;;;;;;;5.07;2.22;;;;;;;12.67;100.00;101065.81;5097019;28;20040;-39
2024/04/06 04:05:55;;;;;;;;;;;;;;;12.74;100.00;101063.81;5096884;28;20156;-39
2024/04/06 04:08:20;;;;;;;3.13;1.50;;;;;;;12.59;100.00;101051.56;5096362;28;20007;-40
2024/04/06 04:10:46;;;;;;;2.70;1.60;;;;;;;12.64;100.00;101064.41;5096692;28;20043;-39
2024/04/06 04:13:12;;;;;;;;;;;;;;;12.72;100.00;101055.88;5096623;28;20035;-39
2024/04/06 04:15:39;;;;;;;3.17;1.90;;;;;;;12.60;100.00;101053.22;5097081;28;19912;-39
2024/04/06 04:18:05;;;;;;;3.95;1.77;;;;;;;12.51;100.00;101043.78;5096155;28;20089;-40
2024/04/06 04:20:30;;;;;;;;;;;;;;;12.66;100.00;101058.75;5096575;28;20452;-40
2024/04/06 04:22:55;;;;;;;3.45;1.70;;;;;;;12.57;100.00;101059.09;5096868;28;19919;-40
2024/04/06 04:25:21;;;;;;;6.03;1.80;;;;;;;12.53;100.00;101055.22;5096135;28;20059;-39
2024/04/06 04:27:46;;;;;;;4.50;2.65;;;;;;;12.53;100.00;101055.22;5095680;28;20837;-40
2024/04/06 04:30:15;;;;;;;5.00;2.42;;;;;;;12.53;100.00;101057.94;5096360;28;20115;-40
2024/04/06 04:32:41;;;;;;;3.70;2.03;;;;;;;12.52;100.00;101056.28;5095892;28;20028;-39
2024/04/06 04:35:06;;;;;;;;;;;;;;;12.61;100.00;101054.84;5096266;28;20080;-39
2024/04/06 04:37:31;;;;;;;6.90;2.50;;;;;;;12.54;100.00;101054.19;5096507;28;19919;-39
2024/04/06 04:39:56;;;;;;;5.63;2.23;;;;;;;12.50;100.00;101047.56;5095766;28;20032;-40
2024/04/06 04:42:22;;;;;;;4.83;2.30;;;;;;;12.52;100.00;101044.63;5095733;28;20737;-40
2024/04/06 04:44:47;;;;;;;3.03;2.05;;;;;;;12.40;100.00;101017.53;5096462;28;20566;-40
2024/04/06 04:47:12;;;;;;;6.23;2.80;;;;;;;12.47;100.00;101031.78;5095831;28;20107;-40
2024/04/06 04:49:38;;;;;;;3.57;2.13;;;;;;;12.48;100.00;101030.69;5095566;28;20290;-40
2024/04/06 04:52:03;;;;;;;4.80;2.97;;;;;;;12.43;100.00;101019.75;5095751;28;20055;-40
2024/04/06 04:54:28;;;;;;;3.00;2.55;;;;;;;12.45;100.00;101020.34;5096376;28;20131;-40
2024/04/06 04:56:54;;;;;;;4.60;2.73;;;;;;;12.46;100.00;101013.03;5095694;28;20059;-40
2024/04/06 04:59:19;;;;;;;4.30;3.00;;;;;;;12.44;100.00;101015.97;5095407;28;20262;-40
2024/04/06 05:01:44;;;;;;;;;;;;;;;12.54;100.00;101010.78;5096278;28;20031;-40
2024/04/06 05:04:10;;;;;;;4.57;3.33;;;;;;;12.37;100.00;100994.41;5096080;28;19939;-40
2024/04/06 05:06:35;;;;;;;4.47;3.13;;;;;;;12.47;100.00;100996.50;5094969;28;20516;-40
2024/04/06 05:09:01;;;;;;;4.18;3.40;;;;;;;12.47;100.00;101001.13;5096042;28;20468;-40
2024/04/06 05:11:26;;;;;;;7.50;4.07;;;;;;;12.48;100.00;101005.47;5095650;28;20054;-40
2024/04/06 05:13:52;;;;;;;6.65;4.20;;;;;;;12.47;100.00;101006.53;5095623;28;20102;-39
2024/04/06 05:16:17;;;;;;;6.32;4.50;;;;;;;12.50;100.00;101011.50;5095398;28;20056;-40
2024/04/06 05:18:43;;;;;;;6.18;3.85;;;;;;;12.50;100.00;100997.94;5095020;28;20024;-39
2024/04/06 05:21:08;;;;;;;;;;;;;;;12.58;100.00;101011.09;5095087;28;20105;-40
2024/04/06 05:23:34;;;;;;;7.60;4.57;;;;;;;12.51;100.00;101013.97;5095233;28;19907;-40
2024/04/06 05:26:00;;;;;;;6.17;3.50;;;;;;;12.49;100.00;101026.94;5095163;28;20327;-40
2024/04/06 05:28:25;;;;;;;;;;;;;;;12.60;100.00;101027.97;5095601;28;20096;-40
2024/04/06 05:30:51;;;;;;;5.43;3.20;;;;;;;12.53;100.00;101029.97;5095309;28;20256;-40
2024/04/06 05:33:21;;;;;;;4.40;3.13;;;;;;;12.50;100.00;101012.31;5094942;28;20026;-39
2024/04/06 05:35:48;;;;;;;5.65;2.72;;;;;;;12.50;100.00;100996.03;5095535;28;20119;-39
2024/04/06 05:38:15;;;;;;;5.03;3.08;;;;;;;12.53;100.00;100981.97;5094616;28;20039;-39
2024/04/06 05:40:42;;;;;;;6.13;2.88;;;;;;;12.49;100.00;100991.69;5095155;28;20031;-40
2024/04/06 05:43:08;;;;;;;4.25;2.60;;;;;;;12.51;100.00;101000.41;5095285;28;20032;-40
2024/04/06 05:45:34;;;;;;;;;;;;;;;12.61;100.00;100997.06;5094978;28;20094;-40
2024/04/06 05:48:06;;;;;;;5.30;2.58;;;;;;;12.50;100.00;100996.03;5094422;28;19908;-41
2024/04/06 05:50:35;;;;;;;5.03;2.30;;;;;;;12.56;100.00;101005.94;5094625;28;20388;-41
2024/04/06 05:53:03;;;;;;;5.57;2.40;;;;;;;12.59;100.00;101007.31;5094095;28;20058;-40
2024/04/06 05:55:28;;;;;;;5.55;2.55;;;;;;;12.62;100.00;101013.09;5094277;28;20028;-40
2024/04/06 05:57:54;;;;;;;5.07;2.10;;;;;;;12.68;100.00;101010.47;5094580;28;20020;-40
2024/04/06 06:00:19;;;;;;;4.35;2.08;;;;;;;12.72;100.00;101003.50;5094244;28;20460;-40
2024/04/06 06:02:45;;;;;;;2.83;2.05;;;;;;;12.80;100.00;100992.28;5093723;28;20031;-40
2024/04/06 06:05:11;;;;;;;2.97;1.95;;;;;;;12.84;100.00;100998.88;5094627;28;20123;-40
2024/04/06 06:07:39;;;;;;;3.30;1.80;;;;;;;12.85;100.00;101000.53;5094151;28;20024;-40
2024/04/06 06:10:05;;;;;;;3.35;1.90;;;;;;;12.93;100.00;100997.41;5094587;28;20051;-39
2024/04/06 06:12:31;;;;;;;4.75;2.22;;;;;;;12.97;100.00;100990.44;5093974;28;20059;-40
2024/04/06 06:14:56;;;;;;;3.97;1.90;;;;;;;13.09;100.00;100979.53;5093962;28;20495;-40
2024/04/06 06:17:21;;;;;;;3.43;1.80;;;;;;;13.17;100.00;100995.41;5094466;28;20254;-40
2024/04/06 06:19:47;;;;;;;3.95;2.05;;;;;;;13.26;100.00;100985.00;5093950;28;20254;-40
2024/04/06 06:22:12;;;;;;;3.58;1.80;;;;;;;13.36;100.00;100986.00;5093660;28;20043;-40
2024/04/06 06:24:38;;;;;;;2.67;1.65;;;;;;;13.46;100.00;100979.91;5094189;28;20031;-40
2024/04/06 06:27:04;;;;;;;4.15;1.90;;;;;;;13.53;100.00;100988.72;5093512;28;20027;-40
2024/04/06 06:29:29;;;;;;;3.78;1.85;;;;;;;13.63;100.00;100983.47;5094248;28;20024;-40
2024/04/06 06:31:54;;;;;;;;;;;;;;;13.83;100.00;101012.03;5094158;28;20028;-41
2024/04/06 06:34:20;;;;;;;5.43;2.43;;;;;;;13.83;100.00;101012.03;5093394;28;20345;-40
2024/04/06 06:36:48;;;;;;;5.10;2.15;;;;;;;13.91;100.00;101019.78;5093610;28;20774;-41
2024/04/06 06:39:14;;;;;;;4.70;2.10;;;;;;;14.00;100.00;101007.38;5093230;28;20024;-40
2024/04/06 06:41:39;;;;;;;;;;;;;;;14.16;100.00;100995.66;5093710;28;20041;-40
2024/04/06 06:44:04;;;;;;;2.43;1.70;;;;;;;14.14;100.00;100995.06;5093306;28;19908;-40
2024/04/06 06:46:29;;;;;;;3.43;1.83;;;;;;;14.29;100.00;100999.06;5093515;28;20274;-41
2024/04/06 06:48:55;;;;;;;3.08;1.60;;;;;;;14.36;100.00;100995.09;5093521;28;20301;-40
2024/04/06 06:51:20;;;;;;;3.25;1.30;;;;;;;14.42;100.00;100999.53;5092201;28;20075;-40
2024/04/06 06:53:45;;;;;;;;;;;;;;;14.57;100.00;101001.66;5094217;28;20129;-40
2024/04/06 06:56:11;;;;;;;4.13;1.60;;;;;;;14.61;100.00;100991.91;5094225;28;19918;-40
2024/04/06 06:58:36;;;;;;;2.90;1.25;;;;;;;14.74;100.00;100984.41;5093770;28;20258;-40
2024/04/06 07:01:02;;;;;;;;;;;;;;;14.87;100.00;100984.00;5093199;28;20024;-41
2024/04/06 07:03:27;;;;;;;3.60;1.65;;;;;;;14.92;100.00;100982.16;5093878;28;20306;-40
2024/04/06 07:05:52;;;;;;;;;;;;;;;15.06;100.00;100979.84;5094059;28;20103;-40
2024/04/06 07:08:17;;;;;;;2.03;1.30;;;;;;;15.14;100.00;100973.97;5093352;28;20314;-40
2024/04/06 07:10:43;;;;;;;;;;;;;;;15.27;100.00;100971.88;5094009;28;20462;-40
2024/04/06 07:13:08;;;;;;;4.10;1.30;;;;;;;15.33;100.00;100966.22;5092920;28;19912;-39
2024/04/06 07:15:33;;;;;;;;;;;;;;;15.48;100.00;100957.34;5095406;28;20052;-39
2024/04/06 07:17:58;;;;;;;2.53;1.20;;;;;;;15.55;100.00;100957.13;5097677;28;20335;-40
2024/04/06 07:20:24;;;;;;;2.42;1.40;;;;;;;15.56;100.00;100947.84;5097595;28;20677;-39
2024/04/06 07:22:49;;;;;;;;;;;;;;;15.76;100.00;100952.66;5098034;28;20345;-40
2024/04/06 07:25:15;;;;;;;2.47;1.65;;;;;;;15.72;100.00;100941.47;5097205;28;19998;-40
2024/04/06 07:27:40;;;;;;;;;;;;;;;15.91;100.00;100933.69;5097744;28;20107;-39
2024/04/06 07:30:06;;;;;;;2.63;1.37;;;;;;;15.88;100.00;100935.03;5097217;28;19951;-40
2024/04/06 07:32:31;;;;;;;2.88;1.30;;;;;;;16.02;100.00;100946.28;5097032;28;20259;-39
2024/04/06 07:34:57;;;;;;;;;;;;;;;16.15;100.00;100950.44;5097338;28;20354;-40
2024/04/06 07:37:22;;;;;;;4.37;1.50;;;;;;;16.13;100.00;100945.25;5096922;28;19919;-40
2024/04/06 07:39:47;;;;;;;;;;;;;;;16.29;100.00;100937.94;5097677;28;20250;-40
2024/04/06 07:42:13;;;;;;;4.00;1.20;;;;;;;16.25;100.00;100930.56;5096817;28;19913;-40
2024/04/06 07:44:38;;;;;;;;;;;;;;;16.34;100.00;100943.41;5097271;28;20326;-40
2024/04/06 07:47:03;;;;;;;3.30;1.00;;;;;;;16.35;100.00;100941.53;5096781;28;19941;-40
2024/04/06 07:49:29;;;;;;;;;;;;;;;16.45;100.00;100938.84;5097188;28;20024;-39
2024/04/06 07:51:54;;;;;;;2.30;1.10;;;;;;;16.49;100.00;100929.00;5096993;28;20010;-40
2024/04/06 07:54:19;;;;;;;;;;;;;;;16.58;100.00;100932.84;5097483;28;20452;-40
2024/04/06 07:56:45;;;;;;;2.87;1.10;;;;;;;16.61;100.00;100932.34;5096665;28;20352;-39
2024/04/06 07:59:10;;;;;;;;;;;;;;;16.72;100.00;100925.84;5097122;28;20741;-40
2024/04/06 08:01:35;;;;;;;4.17;1.30;;;;;;;16.78;100.00;100921.19;5096517;28;20342;-39
2024/04/06 08:04:00;;;;;;;;;;;;;;;16.90;100.00;100921.78;5097180;28;20762;-40
2024/04/06 08:06:26;;;;;;;2.07;1.07;;;;;;;16.94;100.00;100925.59;5096714;28;20360;-39
2024/04/06 08:08:51;;;;;;;;;;;;;;;17.07;100.00;100920.69;5096845;28;20749;-40
2024/04/06 08:11:17;;;;;;;2.33;1.03;;;;;;;17.10;100.00;100923.69;5096640;28;19912;-40
2024/04/06 08:13:42;;;;;;;;;;;;;;;17.21;100.00;100919.88;5097544;28;20286;-40
2024/04/06 08:16:08;;;;;;;8.50;2.93;;;;;;;17.24;100.00;100919.34;5096355;28;19957;-40
2024/04/06 08:18:33;;;;;;;;;;;;;;;17.40;100.00;100924.78;5096978;28;20618;-41
2024/04/06 08:20:58;;;;;;;4.10;1.37;;;;;;;17.43;100.00;100925.06;5096480;28;19915;-40
2024/04/06 08:23:23;;;;;;;2.35;1.10;;;;;;;17.50;100.00;100922.03;5096130;28;20020;-40
2024/04/06 08:25:53;;;;;;;2.75;1.00;;;;;;;17.55;100.00;100918.50;5096142;28;20028;-40
2024/04/06 08:28:18;;;;;;;6.82;3.47;;;;;;;17.60;100.00;100915.75;5095682;28;20104;-40
2024/04/06 08:30:43;;;;;;;;;;;;;;;17.71;100.00;100912.72;5096686;28;20048;-40
2024/04/06 08:33:08;;;;;;;4.00;1.57;;;;;;;17.64;100.00;100903.97;5096241;28;19958;-41
2024/04/06 08:35:36;;;;;;;;;;;;;;;17.81;100.00;100906.41;5095874;28;20290;-40
2024/04/06 08:38:02;;;;;;;2.63;1.10;;;;;;;17.88;100.00;100900.69;5095477;28;20022;-39
2024/04/06 08:40:28;;;;;;;3.40;1.15;;;;;;;18.06;100.00;100913.75;5095427;28;20024;-39
2024/04/06 08:42:55;;;;;;;;;;;;;;;18.19;100.00;100918.59;5095890;28;20040;-40
2024/04/06 08:45:21;;;;;;;2.28;1.02;;;;;;;18.29;100.00;100917.75;5095758;28;19915;-40
2024/04/06 08:47:47;;;;;;;;;;;;;;;18.40;100.00;100908.41;5095663;28;20028;-40
2024/04/06 08:50:13;;;;;;;2.83;1.27;;;;;;;18.46;100.00;100903.72;5095752;28;19919;-40
2024/04/06 08:52:39;;;;;;;2.72;1.13;;;;;;;18.55;100.00;100903.94;5095860;28;20289;-40
2024/04/06 08:55:05;;;;;;;;;;;;;;;18.71;100.00;100897.31;5097159;28;20044;-40
2024/04/06 08:57:34;;;;;;;2.58;1.13;;;;;;;18.87;100.00;100896.09;5095171;28;19959;-40
2024/04/06 09:00:01;;;;;;;4.07;0.90;;;;;;;18.94;100.00;100891.13;5096281;28;20024;-40
2024/04/06 09:02:30;;;;;;;1.33;0.80;;;;;;;19.02;100.00;100886.94;5095148;28;20039;-40
2024/04/06 09:04:55;;;;;;;1.67;0.73;;;;;;;19.02;100.00;100876.78;5095674;28;20536;-41
2024/04/06 09:07:20;;;;;;;;;;;;;;;19.10;100.00;100878.09;5095416;28;20039;-41
2024/04/06 09:09:46;;;;;;;1.27;0.87;;;;;;;19.11;100.00;100860.53;5095308;28;20061;-40
2024/04/06 09:12:11;;;;;;;;;;;;;;;19.22;100.00;100862.06;5095949;28;20352;-43
2024/04/06 09:14:42;;;;;;;2.38;1.00;;;;;;;19.33;100.00;100871.06;5095019;28;20011;-40
2024/04/06 09:17:07;;;;;;;2.05;0.80;;;;;;;19.41;100.00;100861.38;5095304;28;20157;-40
2024/04/06 09:19:32;;;;;;;;;;;;;;;19.53;100.00;100856.31;5095243;28;20489;-40
2024/04/06 09:21:58;;;;;;;4.63;1.15;;;;;;;19.61;100.00;100855.69;5094818;28;19915;-39
2024/04/06 09:24:29;;;;;;;2.60;0.95;;;;;;;19.74;100.00;100848.69;5094939;28;20388;-40
2024/04/06 09:27:11;;;;;;;2.58;1.02;;;;;;;19.75;100.00;100839.34;5094843;28;20048;-40
2024/04/06 09:29:37;;;;;;;2.90;0.70;;;;;;;19.78;100.00;100845.09;5094961;28;20376;-40
2024/04/06 09:32:04;;;;;;;2.42;0.98;;;;;;;19.70;100.00;100832.00;5094533;28;20468;-40
2024/04/06 09:34:30;;;;;;;3.80;1.10;;;;;;;19.75;100.00;100839.34;5093467;28;20485;-40
2024/04/06 09:37:10;;;;;;;4.13;1.05;;;;;;;19.74;100.00;100833.06;5094483;28;20032;-40
2024/04/06 09:39:37;;;;;;;2.20;0.90;;;;;;;19.75;100.00;100826.44;5094497;28;20393;-40
2024/04/06 09:42:05;;;;;;;2.85;0.80;;;;;;;19.91;100.00;100831.75;5094610;28;20117;-41
2024/04/06 09:44:32;;;;;;;2.38;0.98;;;;;;;20.09;98.46;100833.72;5094546;28;20032;-40
2024/04/06 09:46:58;;;;;;;1.90;0.90;;;;;;;20.16;92.48;100830.63;5094433;28;20020;-40
2024/04/06 09:49:24;;;;;;;2.88;0.90;;;;;;;20.23;99.36;100818.16;5094734;28;20051;-40
2024/04/06 09:51:53;;;;;;;3.70;0.80;;;;;;;20.34;97.40;100813.31;5094113;28;20076;-40
2024/04/06 09:54:19;;;;;;;2.15;0.90;;;;;;;20.46;94.79;100799.16;5094880;28;20477;-40
2024/04/06 09:56:46;;;;;;;2.72;0.80;;;;;;;20.57;92.35;100801.47;5094351;28;20028;-40
2024/04/06 09:59:22;;;;;;;2.22;0.95;;;;;;;20.71;93.46;100804.28;5094877;28;20024;-41
2024/04/06 10:01:48;;;;;;;2.90;0.90;;;;;;;20.72;89.45;100800.41;5094220;28;20043;-40
2024/04/06 10:04:30;;;;;;;1.50;0.80;;;;;;;20.68;90.58;100802.09;5094792;28;20040;-40
2024/04/06 10:06:56;;;;;;;1.10;0.68;;;;;;;20.57;88.15;100803.41;5094117;28;20454;-40
2024/04/06 10:09:21;;;;;;;2.30;0.70;;;;;;;20.76;87.28;100787.69;5093898;28;20031;-40
2024/04/06 10:11:48;;;;;;;3.25;0.80;;;;;;;20.86;90.12;100794.13;5094081;28;20016;-40
2024/04/06 10:14:21;;;;;;;4.60;1.25;;;;;;;20.88;88.35;100798.19;5094272;28;20070;-40
2024/04/06 10:16:47;;;;;;;1.58;0.65;;;;;;;20.88;87.86;100795.44;5094029;28;20123;-40
2024/04/06 10:19:12;;;;;;;3.17;0.80;;;;;;;20.76;87.14;100776.72;5093647;28;20114;-40
2024/04/06 10:21:45;;;;;;;2.25;0.68;;;;;;;20.83;84.28;100799.09;5093867;28;20058;-41
2024/04/06 10:24:15;;;;;;;2.25;0.80;;;;;;;20.75;84.47;100793.50;5093851;28;20075;-41
2024/04/06 10:26:47;;;;;;;2.85;1.15;;;;;;;20.71;84.03;100801.53;5093538;28;20030;-41
2024/04/06 10:29:13;;;;;;;1.30;0.70;;;;;;;20.65;83.60;100779.94;5094107;28;20107;-41
2024/04/06 10:31:40;;;;;;;2.85;0.80;;;;;;;20.70;84.20;100782.59;5094266;28;20028;-40
2024/04/06 10:34:06;;;;;;;4.20;1.00;;;;;;;20.67;83.41;100786.75;5093408;28;20028;-40
2024/04/06 10:36:31;;;;;;;3.60;0.75;;;;;;;20.71;86.85;100781.47;5093913;28;20034;-40
2024/04/06 10:38:57;;;;;;;3.45;0.80;;;;;;;20.81;82.90;100781.31;5094472;28;20032;-40
2024/04/06 10:41:22;;;;;;;0.70;0.50;;;;;;;20.88;81.10;100773.47;5094360;28;20032;-40
2024/04/06 10:43:49;;;;;;;2.60;0.70;;;;;;;21.09;83.00;100785.75;5093219;28;20032;-40
2024/04/06 10:46:15;;;;;;;1.77;0.70;;;;;;;21.22;80.07;100781.38;5093514;28;20028;-40
2024/04/06 10:48:40;;;;;;;2.75;0.70;;;;;;;21.26;79.64;100778.84;5093714;28;20503;-41
2024/04/06 10:51:06;;;;;;;3.35;1.25;;;;;;;21.31;78.75;100762.25;5093347;28;20040;-40
2024/04/06 10:53:33;;;;;;;1.58;0.60;;;;;;;21.48;85.01;100783.69;5093858;28;20126;-40
2024/04/06 10:55:59;;;;;;;1.90;0.73;;;;;;;21.53;81.49;100758.81;5093380;28;20459;-41
2024/04/06 10:58:24;;;;;;;1.17;0.60;;;;;;;21.67;79.93;100761.53;5094076;28;20040;-40
2024/04/06 11:00:50;;;;;;;1.70;0.70;;;;;;;21.83;76.88;100763.69;5093808;28;20032;-41
2024/04/06 11:03:16;;;;;;;3.85;0.70;;;;;;;21.99;68.02;100753.13;5093984;28;20115;-40
2024/04/06 11:05:41;;;;;;;1.85;0.70;;;;;;;22.20;70.45;100753.50;5093359;28;20089;-41
2024/04/06 11:08:07;;;;;;;2.65;0.70;;;;;;;22.18;66.62;100744.75;5093605;28;20040;-40
2024/04/06 11:10:33;;;;;;;1.15;0.60;;;;;;;22.31;68.58;100738.38;5093018;28;20021;-41
2024/04/06 11:13:00;;;;;;;1.70;0.98;;;;;;;22.41;68.94;100728.25;5093349;28;20028;-41
2024/04/06 11:15:28;;;;;;;3.83;0.70;;;;;;;22.44;67.78;100733.91;5093178;28;20064;-42
2024/04/06 11:17:55;;;;;;;1.80;0.63;;;;;;;22.37;63.93;100728.06;5092905;28;20024;-41
2024/04/06 11:20:21;;;;;;;1.63;0.60;;;;;;;22.30;66.23;100720.22;5092899;28;20028;-41
2024/04/06 11:22:46;;;;;;;1.60;0.60;;;;;;;22.39;65.83;100733.25;5092649;28;20035;-40
2024/04/06 11:25:21;;;;;;;4.53;0.80;;;;;;;22.46;66.31;100739.13;5092141;28;20424;-41